Sandra Hugh — WDD9019 — position and weather

sailwx.info

Track history (hours):
 
Tides and Currents Weather Stations Pressure Air Temp Water Temp Dewpoint Dewpoint Depression Visibility Wind Speed Wind Dir Waves Ship Positions

Sandra Hugh

Owner: Sortwell Inc., DBA AmNav Maritime Services, Oakland, CA. More information available from US FCC via Universal Licensing System and Coast Guard Vessel Documentation Center.

Last reported at 2016-Dec-10 00:29 UTC. Time now 2016-Dec-10 01:15 UTC.
Position N 38°03' W 122°06'.

Length 24 m; draft 4.9 m.

Type: Tug. MMSI: 367305920.

Date/timePositionNaut miles runAvg speedWind from/ knotsBaromVisibWave heightAir tempDewpointWater temp
2016-Dec-10 00:29N 38°03' W 122°06'6 0.9
2016-Dec-09 17:23N 38°04' W 122°14'1113.0
2016-Dec-09 16:33N 37°59' W 122°26'5 4.9
2016-Dec-09 15:33N 37°55' W 122°22'0 0.0
2016-Dec-09 14:33N 37°55' W 122°22'0 0.5
2016-Dec-09 13:32N 37°55' W 122°22'1 1.1
2016-Dec-09 12:33N 37°54' W 122°23'3 2.9
2016-Dec-09 11:34N 37°56' W 122°26'1110.1
2016-Dec-09 10:31N 38°04' W 122°16'2 0.1
2016-Dec-08 05:32N 38°03' W 122°18'9 8.7
2016-Dec-08 04:32N 37°57' W 122°26'4 3.9
2016-Dec-08 03:33N 37°54' W 122°22'3 2.9
2016-Dec-08 02:31N 37°55' W 122°25'3 2.9
2016-Dec-08 01:33N 37°55' W 122°22'0 0.3
2016-Dec-08 00:33N 37°55' W 122°22'1 1.4
2016-Dec-07 23:33N 37°54' W 122°24'4 3.7
2016-Dec-07 22:33N 37°51' W 122°23'4 3.6
2016-Dec-07 21:33N 37°49' W 122°19'0 0.0
2016-Dec-07 20:33N 37°49' W 122°19'0 0.0
2016-Dec-07 19:34N 37°49' W 122°19'0 0.0
2016-Dec-07 18:34N 37°49' W 122°19'0 0.0
2016-Dec-07 17:33N 37°49' W 122°19'0 0.0
2016-Dec-07 16:34N 37°49' W 122°19'0 0.0
2016-Dec-07 15:34N 37°49' W 122°19'0 0.0
2016-Dec-07 14:34N 37°49' W 122°19'0 0.0
2016-Dec-07 13:34N 37°49' W 122°19'0 0.0
2016-Dec-07 12:34N 37°49' W 122°19'0 0.0
2016-Dec-07 11:33N 37°49' W 122°19'0 0.0
2016-Dec-07 10:34N 37°49' W 122°19'0 0.0
2016-Dec-07 09:34N 37°49' W 122°19'0 0.0
2016-Dec-07 08:33N 37°49' W 122°19'0 0.0
2016-Dec-07 07:33N 37°49' W 122°19'0 0.0
2016-Dec-07 06:33N 37°49' W 122°19'0 0.0
2016-Dec-07 05:33N 37°49' W 122°19'0 0.0
2016-Dec-07 04:33N 37°49' W 122°19'2 1.7
2016-Dec-07 03:34N 37°48' W 122°20'2 1.7
2016-Dec-07 02:34N 37°48' W 122°18'1 1.3
2016-Dec-07 01:34N 37°48' W 122°20'1 0.9
2016-Dec-07 00:34N 37°48' W 122°21'0 0.0
2016-Dec-06 23:33N 37°48' W 122°21'2 2.1
2016-Dec-06 22:34N 37°48' W 122°18'2 1.8
2016-Dec-06 21:34N 37°49' W 122°20'1 0.9
2016-Dec-06 20:34N 37°49' W 122°19'0 0.0
2016-Dec-06 18:33N 37°49' W 122°19'0 0.0
2016-Dec-06 17:33N 37°49' W 122°19'2 1.6
2016-Dec-06 16:33N 37°49' W 122°20'1 1.1
2016-Dec-06 15:33N 37°48' W 122°19'0 0.0
2016-Dec-06 14:34N 37°48' W 122°19'1 1.2
2016-Dec-06 13:34N 37°48' W 122°18'1 1.0
2016-Dec-06 12:34N 37°48' W 122°19'2 1.6
2016-Dec-06 11:33N 37°49' W 122°19'0 0.0
2016-Dec-06 10:34N 37°49' W 122°19'0 0.0
2016-Dec-06 09:33N 37°49' W 122°19'0 0.0
2016-Dec-06 08:33N 37°49' W 122°19'0 0.0
2016-Dec-06 07:33N 37°49' W 122°19'0 0.0
2016-Dec-06 06:33N 37°49' W 122°19'0 0.0
2016-Dec-06 05:33N 37°49' W 122°19'0 0.0
2016-Dec-06 04:33N 37°49' W 122°19'0 0.0
2016-Dec-06 03:34N 37°49' W 122°19'0 0.0
2016-Dec-06 02:34N 37°49' W 122°19'0 0.0
2016-Dec-06 01:33N 37°49' W 122°19'0 0.0
2016-Dec-06 00:34N 37°49' W 122°19'2 2.3
2016-Dec-05 23:34N 37°48' W 122°21'2 2.3
2016-Dec-05 22:33N 37°49' W 122°19'0 0.0
2016-Dec-05 21:33N 37°49' W 122°19'0 0.0
2016-Dec-05 20:33N 37°49' W 122°19'0 0.0
2016-Dec-05 19:33N 37°49' W 122°19'0 0.0
2016-Dec-05 18:34N 37°49' W 122°19'2 1.6
2016-Dec-05 17:33N 37°48' W 122°19'2 2.0
2016-Dec-05 16:34N 37°48' W 122°21'1 0.6
2016-Dec-05 15:33N 37°48' W 122°21'0 0.0
2016-Dec-05 14:34N 37°48' W 122°21'0 0.0
2016-Dec-05 12:34N 37°48' W 122°21'0 0.0
2016-Dec-05 11:34N 37°48' W 122°21'1 0.8
2016-Dec-05 10:33N 37°49' W 122°20'1 0.9
2016-Dec-05 09:33N 37°49' W 122°19'0 0.0
2016-Dec-05 08:34N 37°49' W 122°19'0 0.0
2016-Dec-05 07:33N 37°49' W 122°19'0 0.0
2016-Dec-05 06:33N 37°49' W 122°19'0 0.0
2016-Dec-05 05:33N 37°49' W 122°19'0 0.0
2016-Dec-05 04:34N 37°49' W 122°19'0 0.0
2016-Dec-05 03:33N 37°49' W 122°19'0 0.0
2016-Dec-05 02:33N 37°49' W 122°19'0 0.0
2016-Dec-05 01:33N 37°49' W 122°19'2 1.6
2016-Dec-05 00:33N 37°48' W 122°19'0 0.2
2016-Dec-04 23:34N 37°48' W 122°19'0 0.1
2016-Dec-04 22:34N 37°48' W 122°19'2 2.5
2016-Dec-04 21:33N 37°48' W 122°22'3 3.0
2016-Dec-04 20:33N 37°49' W 122°19'0 0.0
2016-Dec-04 19:33N 37°49' W 122°19'0 0.0
2016-Dec-04 18:33N 37°49' W 122°19'0 0.0
2016-Dec-04 17:33N 37°49' W 122°19'0 0.0
2016-Dec-04 16:33N 37°49' W 122°19'0 0.0
2016-Dec-04 15:34N 37°49' W 122°19'2 1.6
2016-Dec-04 14:34N 37°48' W 122°19'1 1.0
2016-Dec-04 13:33N 37°49' W 122°20'0 0.1
2016-Dec-04 12:33N 37°49' W 122°20'2 2.4
2016-Dec-04 11:34N 37°48' W 122°17'1 1.4
2016-Dec-04 10:34N 37°48' W 122°19'2 1.6
2016-Dec-04 09:33N 37°49' W 122°19'0 0.0
2016-Dec-04 08:34N 37°49' W 122°19'0 0.0
2016-Dec-04 07:33N 37°49' W 122°19'0 0.0
2016-Dec-04 06:34N 37°49' W 122°19'0 0.0
2016-Dec-04 05:33N 37°49' W 122°19'0 0.0
2016-Dec-04 04:34N 37°49' W 122°19'0 0.0
2016-Dec-04 03:33N 37°49' W 122°19'0 0.0
2016-Dec-04 02:33N 37°49' W 122°19'0 0.0
2016-Dec-04 01:33N 37°49' W 122°19'0 0.0
2016-Dec-04 00:34N 37°49' W 122°19'0 0.0
2016-Dec-03 23:33N 37°49' W 122°19'0 0.0
2016-Dec-03 22:33N 37°49' W 122°19'3 1.5
2016-Dec-03 20:34N 37°46' W 122°18'4 3.6
2016-Dec-03 19:34N 37°46' W 122°23'0 0.1
2016-Dec-03 18:34N 37°46' W 122°23'0 0.0
2016-Dec-03 17:34N 37°46' W 122°23'4 3.5
2016-Dec-03 16:34N 37°49' W 122°20'0 0.0
2016-Dec-03 15:34N 37°49' W 122°20'0 0.0
2016-Dec-03 14:33N 37°49' W 122°20'0 0.3
2016-Dec-03 13:33N 37°49' W 122°20'0 0.0
2016-Dec-03 12:34N 37°49' W 122°20'1 1.0
2016-Dec-03 11:34N 37°49' W 122°19'0 0.0
2016-Dec-03 10:33N 37°49' W 122°19'0 0.0
2016-Dec-03 09:33N 37°49' W 122°19'0 0.0
2016-Dec-03 08:34N 37°49' W 122°19'0 0.0
2016-Dec-03 07:33N 37°49' W 122°19'0 0.0
2016-Dec-03 06:33N 37°49' W 122°19'0 0.0
2016-Dec-03 05:33N 37°49' W 122°19'0 0.0
2016-Dec-03 04:34N 37°49' W 122°19'0 0.0
2016-Dec-03 03:33N 37°49' W 122°19'0 0.0
2016-Dec-03 02:33N 37°49' W 122°19'6 6.4
2016-Dec-03 01:33N 37°53' W 122°25'3 2.8
2016-Dec-03 00:34N 37°55' W 122°22'0 0.1
2016-Dec-02 23:33N 37°55' W 122°22'0 0.1
2016-Dec-02 22:33N 37°55' W 122°22'5 5.4
2016-Dec-02 21:33N 37°49' W 122°22'2 1.6
2016-Dec-02 20:33N 37°49' W 122°20'0 0.4
2016-Dec-02 19:33N 37°49' W 122°20'2 1.5
2016-Dec-02 18:34N 37°49' W 122°19'0 0.0
2016-Dec-02 17:34N 37°49' W 122°19'0 0.0
2016-Dec-02 16:33N 37°49' W 122°19'0 0.0
2016-Dec-02 15:33N 37°49' W 122°19'2 2.0
2016-Dec-02 14:34N 37°48' W 122°21'0 0.3
2016-Dec-02 13:33N 37°48' W 122°21'2 1.7
2016-Dec-02 12:33N 37°49' W 122°19'0 0.0
2016-Dec-02 11:33N 37°49' W 122°19'0 0.0
2016-Dec-02 10:33N 37°49' W 122°19'0 0.0
2016-Dec-02 09:34N 37°49' W 122°19'0 0.0
2016-Dec-02 08:33N 37°49' W 122°19'0 0.0
2016-Dec-02 07:33N 37°49' W 122°19'0 0.0
2016-Dec-02 06:34N 37°49' W 122°19'0 0.0
2016-Dec-02 05:34N 37°49' W 122°19'2 1.7
2016-Dec-02 04:34N 37°48' W 122°19'0 0.1
2016-Dec-02 03:33N 37°48' W 122°19'0 0.3
2016-Dec-02 02:34N 37°48' W 122°19'0 0.3
2016-Dec-02 01:34N 37°48' W 122°19'0 0.1
2016-Dec-02 00:34N 37°48' W 122°19'1 0.6
2016-Dec-01 23:33N 37°48' W 122°19'0 0.0
2016-Dec-01 22:34N 37°48' W 122°19'2 1.5
2016-Dec-01 21:33N 37°49' W 122°19'0 0.0
2016-Dec-01 20:33N 37°49' W 122°19'0 0.0
2016-Dec-01 19:33N 37°49' W 122°19'0 0.0
2016-Dec-01 18:34N 37°49' W 122°19'0 0.0
2016-Dec-01 17:34N 37°49' W 122°19'0 0.0
2016-Dec-01 16:33N 37°49' W 122°19'0 0.0
2016-Dec-01 15:34N 37°49' W 122°19'0 0.0
2016-Dec-01 14:34N 37°49' W 122°19'0 0.0
2016-Dec-01 13:34N 37°49' W 122°19'3 3.5
2016-Dec-01 12:34N 37°51' W 122°23'4 4.3
2016-Dec-01 11:33N 37°55' W 122°22'0 0.4
2016-Dec-01 10:34N 37°54' W 122°22'2 2.0
2016-Dec-01 09:34N 37°54' W 122°24'6 5.6
2016-Dec-01 08:33N 37°49' W 122°22'2 2.2
2016-Dec-01 07:34N 37°49' W 122°19'0 0.0
2016-Dec-01 06:33N 37°49' W 122°19'0 0.0
2016-Dec-01 05:33N 37°49' W 122°19'0 0.0
2016-Dec-01 04:33N 37°49' W 122°19'0 0.0
2016-Dec-01 03:34N 37°49' W 122°19'2 1.7
2016-Dec-01 02:34N 37°48' W 122°18'2 1.5
2016-Dec-01 01:34N 37°48' W 122°20'0 0.4
2016-Dec-01 00:34N 37°48' W 122°21'2 1.8
2016-Nov-30 23:34N 37°49' W 122°19'0 0.0
2016-Nov-30 22:33N 37°49' W 122°19'0 0.0
2016-Nov-30 21:34N 37°49' W 122°19'0 0.0
2016-Nov-30 20:33N 37°49' W 122°19'0 0.0
2016-Nov-30 19:33N 37°49' W 122°19'0 0.0
2016-Nov-30 18:34N 37°49' W 122°19'1 1.3
2016-Nov-30 17:34N 37°49' W 122°20'2 1.7
2016-Nov-30 16:34N 37°48' W 122°19'1 0.6
2016-Nov-30 15:34N 37°48' W 122°19'0 0.2
2016-Nov-30 14:34N 37°48' W 122°19'0 0.1
2016-Nov-30 13:34N 37°48' W 122°19'0 0.1
2016-Nov-30 12:34N 37°48' W 122°19'2 1.6
2016-Nov-30 11:33N 37°49' W 122°19'0 0.0
2016-Nov-30 10:33N 37°49' W 122°19'0 0.0
2016-Nov-30 09:34N 37°49' W 122°19'0 0.0
2016-Nov-30 08:33N 37°49' W 122°19'0 0.0
2016-Nov-30 07:34N 37°49' W 122°19'0 0.0
2016-Nov-30 06:33N 37°49' W 122°19'0 0.0
2016-Nov-30 05:33N 37°49' W 122°19'0 0.0
2016-Nov-30 04:33N 37°49' W 122°19'0 0.0
2016-Nov-30 03:34N 37°49' W 122°19'0 0.0
2016-Nov-30 02:34N 37°49' W 122°19'2 1.6
2016-Nov-30 01:34N 37°48' W 122°19'0 0.3
2016-Nov-30 00:34N 37°48' W 122°19'  
Track history (hours):
 
Tides and Currents Weather Stations Pressure Air Temp Water Temp Dewpoint Dewpoint Depression Visibility Wind Speed Wind Dir Waves Ship Positions

Sandra Hugh

Owner: Sortwell Inc., DBA AmNav Maritime Services, Oakland, CA. More information available from US FCC via Universal Licensing System and Coast Guard Vessel Documentation Center.

Last reported at 2016-Dec-10 00:29 UTC. Time now 2016-Dec-10 01:15 UTC.
Position N 38°03' W 122°06'.

Length 24 m; draft 4.9 m.

Type: Tug. MMSI: 367305920.

Date/timePositionNaut miles runAvg speedWind from/ knotsBaromVisibWave heightAir tempDewpointWater temp
2016-Dec-10 00:29N 38°03' W 122°06'6 0.9
2016-Dec-09 17:23N 38°04' W 122°14'1113.0
2016-Dec-09 16:33N 37°59' W 122°26'5 4.9
2016-Dec-09 15:33N 37°55' W 122°22'0 0.0
2016-Dec-09 14:33N 37°55' W 122°22'0 0.5
2016-Dec-09 13:32N 37°55' W 122°22'1 1.1
2016-Dec-09 12:33N 37°54' W 122°23'3 2.9
2016-Dec-09 11:34N 37°56' W 122°26'1110.1
2016-Dec-09 10:31N 38°04' W 122°16'2 0.1
2016-Dec-08 05:32N 38°03' W 122°18'9 8.7
2016-Dec-08 04:32N 37°57' W 122°26'4 3.9
2016-Dec-08 03:33N 37°54' W 122°22'3 2.9
2016-Dec-08 02:31N 37°55' W 122°25'3 2.9
2016-Dec-08 01:33N 37°55' W 122°22'0 0.3
2016-Dec-08 00:33N 37°55' W 122°22'1 1.4
2016-Dec-07 23:33N 37°54' W 122°24'4 3.7
2016-Dec-07 22:33N 37°51' W 122°23'4 3.6
2016-Dec-07 21:33N 37°49' W 122°19'0 0.0
2016-Dec-07 20:33N 37°49' W 122°19'0 0.0
2016-Dec-07 19:34N 37°49' W 122°19'0 0.0
2016-Dec-07 18:34N 37°49' W 122°19'0 0.0
2016-Dec-07 17:33N 37°49' W 122°19'0 0.0
2016-Dec-07 16:34N 37°49' W 122°19'0 0.0
2016-Dec-07 15:34N 37°49' W 122°19'0 0.0
2016-Dec-07 14:34N 37°49' W 122°19'0 0.0
2016-Dec-07 13:34N 37°49' W 122°19'0 0.0
2016-Dec-07 12:34N 37°49' W 122°19'0 0.0
2016-Dec-07 11:33N 37°49' W 122°19'0 0.0
2016-Dec-07 10:34N 37°49' W 122°19'0 0.0
2016-Dec-07 09:34N 37°49' W 122°19'0 0.0
2016-Dec-07 08:33N 37°49' W 122°19'0 0.0
2016-Dec-07 07:33N 37°49' W 122°19'0 0.0
2016-Dec-07 06:33N 37°49' W 122°19'0 0.0
2016-Dec-07 05:33N 37°49' W 122°19'0 0.0
2016-Dec-07 04:33N 37°49' W 122°19'2 1.7
2016-Dec-07 03:34N 37°48' W 122°20'2 1.7
2016-Dec-07 02:34N 37°48' W 122°18'1 1.3
2016-Dec-07 01:34N 37°48' W 122°20'1 0.9
2016-Dec-07 00:34N 37°48' W 122°21'0 0.0
2016-Dec-06 23:33N 37°48' W 122°21'2 2.1
2016-Dec-06 22:34N 37°48' W 122°18'2 1.8
2016-Dec-06 21:34N 37°49' W 122°20'1 0.9
2016-Dec-06 20:34N 37°49' W 122°19'0 0.0
2016-Dec-06 18:33N 37°49' W 122°19'0 0.0
2016-Dec-06 17:33N 37°49' W 122°19'2 1.6
2016-Dec-06 16:33N 37°49' W 122°20'1 1.1
2016-Dec-06 15:33N 37°48' W 122°19'0 0.0
2016-Dec-06 14:34N 37°48' W 122°19'1 1.2
2016-Dec-06 13:34N 37°48' W 122°18'1 1.0
2016-Dec-06 12:34N 37°48' W 122°19'2 1.6
2016-Dec-06 11:33N 37°49' W 122°19'0 0.0
2016-Dec-06 10:34N 37°49' W 122°19'0 0.0
2016-Dec-06 09:33N 37°49' W 122°19'0 0.0
2016-Dec-06 08:33N 37°49' W 122°19'0 0.0
2016-Dec-06 07:33N 37°49' W 122°19'0 0.0
2016-Dec-06 06:33N 37°49' W 122°19'0 0.0
2016-Dec-06 05:33N 37°49' W 122°19'0 0.0
2016-Dec-06 04:33N 37°49' W 122°19'0 0.0
2016-Dec-06 03:34N 37°49' W 122°19'0 0.0
2016-Dec-06 02:34N 37°49' W 122°19'0 0.0
2016-Dec-06 01:33N 37°49' W 122°19'0 0.0
2016-Dec-06 00:34N 37°49' W 122°19'2 2.3
2016-Dec-05 23:34N 37°48' W 122°21'2 2.3
2016-Dec-05 22:33N 37°49' W 122°19'0 0.0
2016-Dec-05 21:33N 37°49' W 122°19'0 0.0
2016-Dec-05 20:33N 37°49' W 122°19'0 0.0
2016-Dec-05 19:33N 37°49' W 122°19'0 0.0
2016-Dec-05 18:34N 37°49' W 122°19'2 1.6
2016-Dec-05 17:33N 37°48' W 122°19'2 2.0
2016-Dec-05 16:34N 37°48' W 122°21'1 0.6
2016-Dec-05 15:33N 37°48' W 122°21'0 0.0
2016-Dec-05 14:34N 37°48' W 122°21'0 0.0
2016-Dec-05 12:34N 37°48' W 122°21'0 0.0
2016-Dec-05 11:34N 37°48' W 122°21'1 0.8
2016-Dec-05 10:33N 37°49' W 122°20'1 0.9
2016-Dec-05 09:33N 37°49' W 122°19'0 0.0
2016-Dec-05 08:34N 37°49' W 122°19'0 0.0
2016-Dec-05 07:33N 37°49' W 122°19'0 0.0
2016-Dec-05 06:33N 37°49' W 122°19'0 0.0
2016-Dec-05 05:33N 37°49' W 122°19'0 0.0
2016-Dec-05 04:34N 37°49' W 122°19'0 0.0
2016-Dec-05 03:33N 37°49' W 122°19'0 0.0
2016-Dec-05 02:33N 37°49' W 122°19'0 0.0
2016-Dec-05 01:33N 37°49' W 122°19'2 1.6
2016-Dec-05 00:33N 37°48' W 122°19'0 0.2
2016-Dec-04 23:34N 37°48' W 122°19'0 0.1
2016-Dec-04 22:34N 37°48' W 122°19'2 2.5
2016-Dec-04 21:33N 37°48' W 122°22'3 3.0
2016-Dec-04 20:33N 37°49' W 122°19'0 0.0
2016-Dec-04 19:33N 37°49' W 122°19'0 0.0
2016-Dec-04 18:33N 37°49' W 122°19'0 0.0
2016-Dec-04 17:33N 37°49' W 122°19'0 0.0
2016-Dec-04 16:33N 37°49' W 122°19'0 0.0
2016-Dec-04 15:34N 37°49' W 122°19'2 1.6
2016-Dec-04 14:34N 37°48' W 122°19'1 1.0
2016-Dec-04 13:33N 37°49' W 122°20'0 0.1
2016-Dec-04 12:33N 37°49' W 122°20'2 2.4
2016-Dec-04 11:34N 37°48' W 122°17'1 1.4
2016-Dec-04 10:34N 37°48' W 122°19'2 1.6
2016-Dec-04 09:33N 37°49' W 122°19'0 0.0
2016-Dec-04 08:34N 37°49' W 122°19'0 0.0
2016-Dec-04 07:33N 37°49' W 122°19'0 0.0
2016-Dec-04 06:34N 37°49' W 122°19'0 0.0
2016-Dec-04 05:33N 37°49' W 122°19'0 0.0
2016-Dec-04 04:34N 37°49' W 122°19'0 0.0
2016-Dec-04 03:33N 37°49' W 122°19'0 0.0
2016-Dec-04 02:33N 37°49' W 122°19'0 0.0
2016-Dec-04 01:33N 37°49' W 122°19'0 0.0
2016-Dec-04 00:34N 37°49' W 122°19'0 0.0
2016-Dec-03 23:33N 37°49' W 122°19'0 0.0
2016-Dec-03 22:33N 37°49' W 122°19'3 1.5
2016-Dec-03 20:34N 37°46' W 122°18'4 3.6
2016-Dec-03 19:34N 37°46' W 122°23'0 0.1
2016-Dec-03 18:34N 37°46' W 122°23'0 0.0
2016-Dec-03 17:34N 37°46' W 122°23'4 3.5
2016-Dec-03 16:34N 37°49' W 122°20'0 0.0
2016-Dec-03 15:34N 37°49' W 122°20'0 0.0
2016-Dec-03 14:33N 37°49' W 122°20'0 0.3
2016-Dec-03 13:33N 37°49' W 122°20'0 0.0
2016-Dec-03 12:34N 37°49' W 122°20'1 1.0
2016-Dec-03 11:34N 37°49' W 122°19'0 0.0
2016-Dec-03 10:33N 37°49' W 122°19'0 0.0
2016-Dec-03 09:33N 37°49' W 122°19'0 0.0
2016-Dec-03 08:34N 37°49' W 122°19'0 0.0
2016-Dec-03 07:33N 37°49' W 122°19'0 0.0
2016-Dec-03 06:33N 37°49' W 122°19'0 0.0
2016-Dec-03 05:33N 37°49' W 122°19'0 0.0
2016-Dec-03 04:34N 37°49' W 122°19'0 0.0
2016-Dec-03 03:33N 37°49' W 122°19'0 0.0
2016-Dec-03 02:33N 37°49' W 122°19'6 6.4
2016-Dec-03 01:33N 37°53' W 122°25'3 2.8
2016-Dec-03 00:34N 37°55' W 122°22'0 0.1
2016-Dec-02 23:33N 37°55' W 122°22'0 0.1
2016-Dec-02 22:33N 37°55' W 122°22'5 5.4
2016-Dec-02 21:33N 37°49' W 122°22'2 1.6
2016-Dec-02 20:33N 37°49' W 122°20'0 0.4
2016-Dec-02 19:33N 37°49' W 122°20'2 1.5
2016-Dec-02 18:34N 37°49' W 122°19'0 0.0
2016-Dec-02 17:34N 37°49' W 122°19'0 0.0
2016-Dec-02 16:33N 37°49' W 122°19'0 0.0
2016-Dec-02 15:33N 37°49' W 122°19'2 2.0
2016-Dec-02 14:34N 37°48' W 122°21'0 0.3
2016-Dec-02 13:33N 37°48' W 122°21'2 1.7
2016-Dec-02 12:33N 37°49' W 122°19'0 0.0
2016-Dec-02 11:33N 37°49' W 122°19'0 0.0
2016-Dec-02 10:33N 37°49' W 122°19'0 0.0
2016-Dec-02 09:34N 37°49' W 122°19'0 0.0
2016-Dec-02 08:33N 37°49' W 122°19'0 0.0
2016-Dec-02 07:33N 37°49' W 122°19'0 0.0
2016-Dec-02 06:34N 37°49' W 122°19'0 0.0
2016-Dec-02 05:34N 37°49' W 122°19'2 1.7
2016-Dec-02 04:34N 37°48' W 122°19'0 0.1
2016-Dec-02 03:33N 37°48' W 122°19'0 0.3
2016-Dec-02 02:34N 37°48' W 122°19'0 0.3
2016-Dec-02 01:34N 37°48' W 122°19'0 0.1
2016-Dec-02 00:34N 37°48' W 122°19'1 0.6
2016-Dec-01 23:33N 37°48' W 122°19'0 0.0
2016-Dec-01 22:34N 37°48' W 122°19'2 1.5
2016-Dec-01 21:33N 37°49' W 122°19'0 0.0
2016-Dec-01 20:33N 37°49' W 122°19'0 0.0
2016-Dec-01 19:33N 37°49' W 122°19'0 0.0
2016-Dec-01 18:34N 37°49' W 122°19'0 0.0
2016-Dec-01 17:34N 37°49' W 122°19'0 0.0
2016-Dec-01 16:33N 37°49' W 122°19'0 0.0
2016-Dec-01 15:34N 37°49' W 122°19'0 0.0
2016-Dec-01 14:34N 37°49' W 122°19'0 0.0
2016-Dec-01 13:34N 37°49' W 122°19'3 3.5
2016-Dec-01 12:34N 37°51' W 122°23'4 4.3
2016-Dec-01 11:33N 37°55' W 122°22'0 0.4
2016-Dec-01 10:34N 37°54' W 122°22'2 2.0
2016-Dec-01 09:34N 37°54' W 122°24'6 5.6
2016-Dec-01 08:33N 37°49' W 122°22'2 2.2
2016-Dec-01 07:34N 37°49' W 122°19'0 0.0
2016-Dec-01 06:33N 37°49' W 122°19'0 0.0
2016-Dec-01 05:33N 37°49' W 122°19'0 0.0
2016-Dec-01 04:33N 37°49' W 122°19'0 0.0
2016-Dec-01 03:34N 37°49' W 122°19'2 1.7
2016-Dec-01 02:34N 37°48' W 122°18'2 1.5
2016-Dec-01 01:34N 37°48' W 122°20'0 0.4
2016-Dec-01 00:34N 37°48' W 122°21'2 1.8
2016-Nov-30 23:34N 37°49' W 122°19'0 0.0
2016-Nov-30 22:33N 37°49' W 122°19'0 0.0
2016-Nov-30 21:34N 37°49' W 122°19'0 0.0
2016-Nov-30 20:33N 37°49' W 122°19'0 0.0
2016-Nov-30 19:33N 37°49' W 122°19'0 0.0
2016-Nov-30 18:34N 37°49' W 122°19'1 1.3
2016-Nov-30 17:34N 37°49' W 122°20'2 1.7
2016-Nov-30 16:34N 37°48' W 122°19'1 0.6
2016-Nov-30 15:34N 37°48' W 122°19'0 0.2
2016-Nov-30 14:34N 37°48' W 122°19'0 0.1
2016-Nov-30 13:34N 37°48' W 122°19'0 0.1
2016-Nov-30 12:34N 37°48' W 122°19'2 1.6
2016-Nov-30 11:33N 37°49' W 122°19'0 0.0
2016-Nov-30 10:33N 37°49' W 122°19'0 0.0
2016-Nov-30 09:34N 37°49' W 122°19'0 0.0
2016-Nov-30 08:33N 37°49' W 122°19'0 0.0
2016-Nov-30 07:34N 37°49' W 122°19'0 0.0
2016-Nov-30 06:33N 37°49' W 122°19'0 0.0
2016-Nov-30 05:33N 37°49' W 122°19'0 0.0
2016-Nov-30 04:33N 37°49' W 122°19'0 0.0
2016-Nov-30 03:34N 37°49' W 122°19'0 0.0
2016-Nov-30 02:34N 37°49' W 122°19'2 1.6
2016-Nov-30 01:34N 37°48' W 122°19'0 0.3
2016-Nov-30 00:34N 37°48' W 122°19'  

Dump ship's entire track history